Flight Track Log - Related Links

Times and Time Zones

All times are in EDT time to prevent confusion due to time zone crossing. See the SWA1451 flight status page for this flight to view local times or setup timezone preferences in your user account.

Time Position Orientation Groundspeed Altitude Reporting Facility
EDT Latitude Longitude Course Direction KTS MPH feet Rate Location/Type
08:22AM 41.7690 -87.7780 263° West 155 178 2,100  Level FlightAware
08:22AM 41.7740 -87.7940 293° West 192 221 2,600 1,500 Climbing FlightAware
08:22AM 41.7830 -87.8020 326° Northwest 211 243 2,800 900 Climbing FlightAware
08:22AM 41.7910 -87.8040 349° North 225 259 2,900 214 Climbing FlightAware
08:23AM 41.8120 -87.7930 21° North 244 281 2,900  Level FlightAware
08:23AM 41.8210 -87.7720 60° Northeast 242 278 2,900 500 Level FlightAware
08:23AM 41.8170 -87.7270 97° East 238 274 3,300 941 Climbing FlightAware
08:24AM 41.8120 -87.6980 103° East 249 287 3,700 1,269 Climbing FlightAware
08:24AM 41.8030 -87.6470 103° East 281 323 4,400 1,158 Climbing FlightAware
08:25AM 41.7960 -87.6070 103° East 287 330 4,800 833 Climbing FlightAware
08:25AM 41.7950 -87.5860 94° East 289 333 4,900 143 Climbing FlightAware
08:25AM 41.7920 -87.5300 94° East 288 331 4,900 273 Level FlightAware
08:26AM 41.7900 -87.5070 97° East 290 334 5,100 1,400 Climbing FlightAware
08:26AM 41.7880 -87.4780 95° East 289 333 5,600 2,927 Climbing FlightAware
08:26AM 41.7860 -87.4330 93° East 292 336 7,100 3,808 Climbing FlightAware
08:27AM 41.7830 -87.3820 94° East 292 336 8,900 3,041 Climbing FlightAware
08:28AM 41.7810 -87.2970 92° East 334 384 10,800 2,541 Climbing FlightAware
08:28AM 41.7800 -87.2100 91° East 367 422 12,500 3,036 Climbing FlightAware
08:29AM 41.7790 -87.1080 91° East 372 428 15,000 3,325 Climbing FlightAware
08:30AM 41.7780 -87.0190 91° East 376 433 17,100 2,651 Climbing FlightAware
08:30AM 41.7770 -86.9040 91° East 403 464 18,800 2,200 Climbing FlightAware
08:31AM 41.7760 -86.7930 91° East 421 484 20,400 2,462 Climbing FlightAware
08:32AM 41.7740 -86.7040 92° East 423 487 22,000 2,692 Climbing FlightAware
08:32AM 41.7720 -86.5890 91° East 421 484 23,900 2,286 Climbing FlightAware
08:33AM 41.7660 -86.4860 94° East 427 491 25,200 1,846 Climbing FlightAware
08:34AM 41.7610 -86.3840 94° East 438 504 26,300 1,643 Climbing FlightAware
08:35AM 41.7540 -86.2600 94° East 447 514 27,500 1,636 Climbing FlightAware
08:35AM 41.7480 -86.1410 94° East 452 520 28,700 1,724 Climbing FlightAware
08:36AM 41.7410 -86.0170 94° East 452 520 30,000 1,976 Climbing FlightAware
08:37AM 41.7350 -85.9090 94° East 440 506 31,500 2,143 Climbing FlightAware
08:37AM 41.7290 -85.7890 94° East 431 496 33,000 1,886 Climbing FlightAware
08:38AM 41.7250 -85.7210 94° East 430 495 33,700 1,482 Climbing FlightAware
08:39AM 41.7160 -85.5660 94° East 428 493 35,100 1,516 Climbing FlightAware
08:39AM 41.7100 -85.4720 95° East 422 486 36,100 1,077 Climbing FlightAware
08:40AM 41.7050 -85.3710 94° East 419 482 36,500 628 Climbing FlightAware
08:41AM 41.6960 -85.2470 96° East 417 480 37,000 337 Climbing FlightAware
08:42AM 41.6890 -85.1340 95° East 418 481 37,000  Level FlightAware
08:42AM 41.6840 -85.0470 94° East 418 481 37,000  Level FlightAware
08:43AM 41.6790 -84.9700 95° East 417 480 37,000  Level FlightAware
08:44AM 41.6660 -84.7700 95° East 416 479 37,000  Level FlightAware
08:45AM 41.6610 -84.6590 93° East 416 479 37,000  Level FlightAware
08:45AM 41.6570 -84.5500 93° East 414 476 37,000  Level FlightAware
08:46AM 41.6520 -84.4530 94° East 411 473 37,000  Level FlightAware
08:47AM 41.6340 -84.3810 108° East 411 473 37,000  Level FlightAware
08:47AM 41.5960 -84.2820 117° Southeast 412 474 37,000  Level FlightAware
08:48AM 41.5600 -84.1870 117° Southeast 414 476 37,000  Level FlightAware
08:48AM 41.5370 -84.1280 117° Southeast 415 478 37,000  Level FlightAware
08:49AM 41.5010 -84.0320 117° Southeast 416 479 37,000  Level FlightAware
08:50AM 41.4630 -83.9350 118° Southeast 416 479 37,000  Level FlightAware
08:50AM 41.4290 -83.8470 117° Southeast 418 481 37,000  Level FlightAware
08:51AM 41.3900 -83.7460 117° Southeast 419 482 37,000  Level FlightAware
08:52AM 41.3610 -83.6710 117° Southeast 420 483 37,000  Level FlightAware
08:52AM 41.3230 -83.5720 117° Southeast 421 484 37,000  Level FlightAware
08:53AM 41.2840 -83.4750 118° Southeast 421 484 37,000  Level FlightAware
08:54AM 41.2460 -83.3770 117° Southeast 422 486 37,000  Level FlightAware
08:55AM 41.2060 -83.2740 117° Southeast 422 486 37,000  Level FlightAware
08:55AM 41.1770 -83.2010 118° Southeast 421 484 37,000  Level FlightAware
08:56AM 41.1420 -83.1120 118° Southeast 420 483 37,000  Level FlightAware
08:56AM 41.1120 -83.0380 118° Southeast 421 484 37,000  Level FlightAware
08:57AM 41.0770 -82.9480 117° Southeast 420 483 37,000  Level FlightAware
08:58AM 41.0270 -82.8240 118° Southeast 417 480 37,000  Level FlightAware
08:58AM 40.9940 -82.7430 118° Southeast 415 478 37,000  Level FlightAware
08:59AM 40.9520 -82.6380 118° Southeast 414 476 37,000  Level FlightAware
09:00AM 40.9310 -82.5850 118° Southeast 413 475 37,000  Level FlightAware
09:00AM 40.8950 -82.4950 118° Southeast 416 479 37,000  Level FlightAware
09:01AM 40.8560 -82.4000 118° Southeast 416 479 37,000  Level FlightAware
09:02AM 40.8150 -82.2980 118° Southeast 417 480 37,000  Level FlightAware
09:02AM 40.7790 -82.2110 119° Southeast 417 480 37,000  Level FlightAware
09:03AM 40.7380 -82.1100 118° Southeast 419 482 37,000  Level FlightAware
09:04AM 40.7070 -82.0340 118° Southeast 419 482 37,000  Level FlightAware
09:04AM 40.6720 -81.9490 118° Southeast 419 482 37,000  Level FlightAware
09:05AM 40.6290 -81.8450 119° Southeast 417 480 37,000  Level FlightAware
09:06AM 40.5920 -81.7550 118° Southeast 418 481 37,000  Level FlightAware
09:07AM 40.5520 -81.6590 119° Southeast 417 480 37,000  Level FlightAware
09:07AM 40.5190 -81.5610 114° Southeast 419 482 37,000  Level FlightAware
09:08AM 40.4870 -81.4660 114° Southeast 421 484 37,000  Level FlightAware
09:09AM 40.4570 -81.3750 113° Southeast 422 486 37,000  Level FlightAware
09:09AM 40.4250 -81.2810 114° Southeast 422 486 37,000  Level FlightAware
09:10AM 40.3930 -81.1860 114° Southeast 422 486 37,000  Level FlightAware
09:11AM 40.3630 -81.0970 114° Southeast 423 487 37,000  Level FlightAware
09:11AM 40.3390 -81.0250 114° Southeast 422 486 37,000  Level FlightAware
09:12AM 40.3040 -80.9220 114° Southeast 417 480 37,000  Level FlightAware
09:12AM 40.2720 -80.8290 114° Southeast 416 479 37,000  Level FlightAware
09:13AM 40.2460 -80.7510 114° Southeast 416 479 37,000  Level FlightAware
09:14AM 40.2170 -80.6680 115° Southeast 416 479 37,000  Level FlightAware
09:14AM 40.1830 -80.5690 114° Southeast 415 478 37,000  Level FlightAware
09:15AM 40.1510 -80.4770 114° Southeast 415 478 37,000  Level FlightAware
09:16AM 40.1040 -80.3420 114° Southeast 416 479 37,000  Level FlightAware
09:17AM 40.0720 -80.2470 114° Southeast 414 476 37,000  Level FlightAware
09:17AM 40.0400 -80.1560 115° Southeast 413 475 37,000  Level FlightAware
09:18AM 40.0060 -80.0610 115° Southeast 412 474 37,000 -162 Level FlightAware
09:19AM 39.9810 -79.9890 114° Southeast 414 476 36,800 -667 Descending FlightAware
09:19AM 39.9490 -79.8980 115° Southeast 423 487 36,200 -923 Descending FlightAware
09:20AM 39.9170 -79.8080 115° Southeast 428 493 35,600 -951 Descending FlightAware
09:21AM 39.8810 -79.7050 114° Southeast 431 496 34,900 -1,000 Descending FlightAware
09:21AM 39.8480 -79.6120 115° Southeast 435 501 34,200 -1,429 Descending FlightAware
09:22AM 39.8100 -79.5080 115° Southeast 432 497 32,900 -2,512 Descending FlightAware
09:23AM 39.7740 -79.4060 115° Southeast 442 509 30,600 -3,000 Descending FlightAware
09:23AM 39.7360 -79.3020 115° Southeast 436 502 28,600 -2,643 Descending FlightAware
09:24AM 39.7030 -79.2090 115° Southeast 433 498 26,900 -2,571 Descending FlightAware
09:25AM 39.6770 -79.1370 115° Southeast 431 496 25,600 -1,629 Descending FlightAware
09:25AM 39.6500 -79.0410 110° East 428 493 25,000 -429 Descending FlightAware
09:26AM 39.6250 -78.9350 107° East 427 491 25,000  Level FlightAware
09:27AM 39.5930 -78.8410 114° Southeast 425 489 25,000  Level FlightAware
09:27AM 39.5550 -78.7510 119° Southeast 424 488 25,000 -732 Level FlightAware
09:28AM 39.5160 -78.6590 119° Southeast 424 488 24,000 -1,950 Descending FlightAware
09:29AM 39.4800 -78.5750 119° Southeast 418 481 22,400 -2,605 Descending FlightAware
09:29AM 39.4400 -78.4960 123° Southeast 410 472 20,700 -2,571 Descending FlightAware
09:30AM 39.3930 -78.4020 123° Southeast 401 461 18,800 -2,483 Descending FlightAware
09:31AM 39.3540 -78.3230 123° Southeast 394 453 17,100 -2,538 Descending FlightAware
09:31AM 39.3220 -78.2440 118° Southeast 389 448 15,500 -1,655 Descending FlightAware
09:32AM 39.3150 -78.1340 95° East 384 442 14,700 -933 Descending FlightAware
09:33AM 39.3310 -78.0390 78° East 383 441 14,100 -960 Descending FlightAware
09:34AM 39.3450 -77.9610 77° East 383 441 13,500 -960 Descending FlightAware
09:34AM 39.3600 -77.8750 77° East 377 434 12,900 -975 Descending FlightAware
09:35AM 39.3750 -77.7880 77° East 370 426 12,200 -1,050 Descending FlightAware
09:36AM 39.3900 -77.7040 77° East 366 421 11,500 -988 Descending FlightAware
09:36AM 39.4150 -77.6090 71° East 356 410 10,800 -533 Descending FlightAware
09:37AM 39.4370 -77.5250 71° East 347 399 10,700  Descending FlightAware
09:38AM 39.4580 -77.4440 71° East 342 394 10,800 74 Climbing FlightAware
09:38AM 39.4780 -77.3620 72° East 344 396 10,800  Level FlightAware
09:39AM 39.4850 -77.3030 81° East 348 400 10,800  Level FlightAware
09:40AM 39.4880 -77.2180 87° East 348 400 10,800 -214 Level FlightAware
09:40AM 39.4900 -77.1270 88° East 336 387 10,500 -592 Descending FlightAware
09:41AM 39.4900 -77.0810 90° East 317 365 10,100 -778 Descending FlightAware
09:41AM 39.4900 -77.0270 90° East 301 346 9,800 -714 Descending FlightAware
09:41AM 39.4910 -77.0000 87° East 290 334 9,600 -955 Descending FlightAware
09:42AM 39.4910 -76.9510 90° East 284 327 9,100 -982 Descending FlightAware
09:42AM 39.4920 -76.9070 88° East 283 326 8,700 -1,050 Descending FlightAware
09:43AM 39.4930 -76.8850 87° East 281 323 8,400 -933 Descending FlightAware
09:43AM 39.4900 -76.8390 95° East 275 316 8,000 -1,053 Descending FlightAware
09:44AM 39.4770 -76.7890 109° East 273 314 7,400 -1,154 Descending FlightAware
09:44AM 39.4630 -76.7530 117° Southeast 271 312 7,000 -982 Descending FlightAware
09:44AM 39.4460 -76.7130 119° Southeast 270 311 6,500 -1,200 Descending FlightAware
09:45AM 39.4280 -76.6770 123° Southeast 272 313 5,900 -1,535 Descending FlightAware
09:45AM 39.4130 -76.6600 139° Southeast 264 304 5,400 -1,273 Descending FlightAware
09:45AM 39.3980 -76.6430 139° Southeast 259 298 5,200 -875 Descending FlightAware
09:46AM 39.3720 -76.6140 139° Southeast 257 296 4,700 -1,132 Descending FlightAware
09:46AM 39.3510 -76.5910 140° Southeast 247 284 4,200 -1,091 Descending FlightAware
09:47AM 39.3360 -76.5740 139° Southeast 244 281 3,900 -698 Descending FlightAware
09:47AM 39.3140 -76.5480 138° Southeast 224 258 3,700 -128 Descending FlightAware
09:47AM 39.2900 -76.5290 149° Southeast 209 241 3,800 182 Climbing FlightAware
09:48AM 39.2870 -76.5270 153° Southeast 209 241 3,800  Level FlightAware
09:48AM 39.2660 -76.5170 160° South 208 239 3,800 -133 Level FlightAware
09:48AM 39.2420 -76.5060 160° South 206 237 3,700 -450 Descending FlightAware
09:49AM 39.2300 -76.5010 162° South 208 239 3,500 -478 Descending FlightAware
09:50AM 39.1640 -76.4690 159° South 2,800 -429 Descending FlightAware
09:50AM 39.1440 -76.4710 184° South 196 226 2,800 -214 Level FlightAware
09:51AM 39.1200 -76.4910 213° Southwest 200 230 2,600 -679 Descending FlightAware
09:51AM 39.0990 -76.5070 211° Southwest 201 231 2,200 -900 Descending FlightAware
09:52AM 39.0700 -76.5300 212° Southwest 197 227 1,700 -400 Descending FlightAware
09:52AM 39.0600 -76.5510 238° Southwest 182 209 1,800 176 Climbing FlightAware
09:52AM 39.0640 -76.5630 293° West 184 212 1,800  Level FlightAware
09:52AM 39.0700 -76.5750 303° West 187 215 1,800 -146 Level FlightAware
09:53AM 39.0870 -76.5910 324° Northwest 186 214 1,700 -113 Descending FlightAware
09:53AM 39.1020 -76.6040 326° Northwest 186 214 1,700 -700 Level FlightAware
09:54AM 39.1333 -76.6333 326° Northwest 186 214 1,000 -821 Descending Potomac TRACON
09:55AM 39.1500 -76.6500 322° Northwest 170 196 400 -600 Descending Potomac TRACON

Login

Don't have an account? Register now (free) for customized features, flight alerts, and more!